Time;durP1;ratioP1;P1;durP2;ratioP2;P2;SDS_P1;SDS_P2;PMS_P1;PMS_P2;Temp;Humidity;BMP_temperature;BMP_pressure;BME280_temperature;BME280_humidity;BME280_pressure;Samples;Min_cycle;Max_cycle;Signal;HPM_P1;HPM_P2
2024/01/19 00:00:08;;;;;;;13.23;7.20;;;;;;;0.79;89.74;101208.75;5032972;28;20033;-86
2024/01/19 00:02:33;;;;;;;11.77;7.40;;;;;;;0.74;88.91;101208.50;5032692;28;20025;-86
2024/01/19 00:04:59;;;;;;;13.52;7.53;;;;;;;1.13;89.96;101281.78;5015152;28;20041;-86
2024/01/19 00:07:24;;;;;;;13.60;6.85;;;;;;;0.75;89.53;101210.28;4998728;28;20041;-86
2024/01/19 00:09:50;;;;;;;11.32;7.00;;;;;;;0.90;90.50;101266.56;5015327;28;20029;-86
2024/01/19 00:12:15;;;;;;;13.02;7.40;;;;;;;1.03;90.11;101278.56;5032694;28;20026;-86
2024/01/19 00:14:41;;;;;;;13.30;7.47;;;;;;;0.91;89.78;101252.78;5014996;28;20057;-86
2024/01/19 00:17:06;;;;;;;15.73;7.07;;;;;;;0.85;90.15;101247.19;5015040;28;20033;-86
2024/01/19 00:19:35;;;;;;;12.27;6.60;;;;;;;1.00;89.79;101271.50;5015184;28;20029;-86
2024/01/19 00:22:00;;;;;;;15.93;7.18;;;;;;;0.74;90.15;101221.50;5014843;28;20040;-86
2024/01/19 00:24:26;;;;;;;12.45;6.68;;;;;;;0.80;89.98;101240.84;5016971;28;20041;-86
2024/01/19 00:26:58;;;;;;;14.15;6.63;;;;;;;0.65;90.79;101225.31;5018885;28;20079;-86
2024/01/19 00:29:24;;;;;;;15.38;6.72;;;;;;;0.64;90.54;101229.59;5036349;28;20148;-86
2024/01/19 00:31:50;;;;;;;13.73;7.18;;;;;;;0.73;90.23;101245.72;5036599;28;20129;-86
2024/01/19 00:34:16;;;;;;;14.40;6.05;;;;;;;0.97;91.17;101295.63;5036581;28;20553;-86
2024/01/19 00:36:42;;;;;;;11.05;7.10;;;;;;;0.68;90.74;101241.06;5018870;28;20044;-86
2024/01/19 00:39:10;;;;;;;11.95;6.05;;;;;;;0.80;90.94;101264.25;5018407;28;20038;-86
2024/01/19 00:41:38;;;;;;;10.63;5.72;;;;;;;0.97;90.32;101305.13;5036429;28;20173;-85
2024/01/19 00:44:10;;;;;;;11.20;6.80;;;;;;;0.85;91.24;101281.91;5018547;28;20034;-86
2024/01/19 00:46:37;;;;;;;13.15;5.90;;;;;;;1.13;90.34;101323.41;5018591;28;20375;-85
2024/01/19 00:49:03;;;;;;;16.15;7.70;;;;;;;0.60;90.27;101255.31;5018741;28;20120;-85
2024/01/19 00:51:28;;;;;;;11.38;6.50;;;;;;;0.98;90.38;101339.03;5018521;28;20121;-85
2024/01/19 00:53:54;;;;;;;12.38;6.10;;;;;;;0.53;90.64;101261.00;5018344;28;20045;-86
2024/01/19 00:56:19;;;;;;;11.30;6.28;;;;;;;0.48;90.47;101243.44;5018409;28;20095;-85
2024/01/19 00:58:45;;;;;;;11.45;6.25;;;;;;;0.94;90.00;101321.50;5018342;28;20124;-85
2024/01/19 01:01:12;;;;;;;12.65;6.40;;;;;;;0.67;90.36;101260.97;5018249;28;20048;-85
2024/01/19 01:03:39;;;;;;;11.70;6.05;;;;;;;1.14;90.57;101321.69;5036065;28;20038;-85
2024/01/19 01:06:05;;;;;;;13.55;6.10;;;;;;;1.33;89.88;101352.25;5036078;28;20040;-85
2024/01/19 01:08:33;;;;;;;11.88;6.28;;;;;;;0.84;90.11;101281.84;5035672;28;20466;-85
2024/01/19 01:10:58;;;;;;;11.82;5.65;;;;;;;1.14;90.96;101351.22;5035940;28;20072;-85
2024/01/19 01:13:25;;;;;;;15.90;6.55;;;;;;;0.64;90.27;101263.41;5035718;28;20414;-85
2024/01/19 01:15:51;;;;;;;14.70;6.60;;;;;;;1.18;89.84;101360.09;5035733;28;20022;-85
2024/01/19 01:18:17;;;;;;;12.80;6.38;;;;;;;1.14;89.76;101353.81;5035667;28;20390;-85
2024/01/19 01:20:43;;;;;;;12.35;6.70;;;;;;;0.90;90.23;101314.31;5001877;28;20053;-85
2024/01/19 01:23:11;;;;;;;13.27;6.05;;;;;;;1.19;89.52;101361.88;5017968;28;20029;-85
2024/01/19 01:25:37;;;;;;;11.95;6.28;;;;;;;1.11;89.74;101358.84;5018207;28;20037;-85
2024/01/19 01:28:02;;;;;;;9.85;5.88;;;;;;;0.72;90.67;101298.53;5035591;28;20124;-85
2024/01/19 01:30:30;;;;;;;16.27;6.18;;;;;;;0.58;90.96;101301.16;5017802;28;20029;-85
2024/01/19 01:32:56;;;;;;;12.15;5.93;;;;;;;0.79;90.69;101343.13;5035269;28;20037;-85
2024/01/19 01:35:22;;;;;;;11.40;6.07;;;;;;;0.75;91.47;101349.84;5017079;28;20083;-85
2024/01/19 01:37:48;;;;;;;13.90;6.50;;;;;;;0.60;92.01;101317.72;5017458;28;20045;-85
2024/01/19 01:40:13;;;;;;;11.63;5.97;;;;;;;0.85;91.70;101359.06;5017929;28;20033;-85
2024/01/19 01:42:39;;;;;;;12.27;6.25;;;;;;;0.97;90.88;101375.38;5035205;28;20492;-85
2024/01/19 01:45:10;;;;;;;14.00;6.05;;;;;;;0.66;90.61;101310.31;5017657;28;20108;-85
2024/01/19 01:47:36;;;;;;;11.68;6.50;;;;;;;0.47;91.17;101309.25;5017530;28;20064;-85
2024/01/19 01:50:01;;;;;;;14.00;6.18;;;;;;;0.24;90.98;101286.19;5017466;28;20033;-85
2024/01/19 01:52:27;;;;;;;11.75;6.18;;;;;;;0.19;91.65;101280.72;5001419;28;20029;-85
2024/01/19 01:54:53;;;;;;;13.05;6.70;;;;;;;0.60;91.38;101357.66;5034933;28;20049;-85
2024/01/19 01:57:21;;;;;;;15.95;6.88;;;;;;;0.32;92.20;101331.72;5017557;28;20029;-85
2024/01/19 01:59:52;;;;;;;13.50;6.75;;;;;;;0.25;92.04;101330.44;5017401;28;20037;-85
2024/01/19 02:02:18;;;;;;;13.80;6.32;;;;;;;0.34;92.72;101357.78;5034750;28;20033;-85
2024/01/19 02:04:43;;;;;;;11.43;6.30;;;;;;;0.04;93.10;101323.94;5034703;28;20072;-85
2024/01/19 02:07:09;;;;;;;12.77;6.28;;;;;;;0.47;93.06;101388.91;5034918;28;20043;-85
2024/01/19 02:09:37;;;;;;;13.80;6.35;;;;;;;0.34;92.20;101365.59;5034744;28;20386;-85
2024/01/19 02:12:06;;;;;;;17.20;6.60;;;;;;;0.00;92.69;101324.59;5034885;28;20124;-85
2024/01/19 02:14:34;;;;;;;9.65;6.30;;;;;;;0.08;92.75;101345.81;5034920;28;20033;-85
2024/01/19 02:16:59;;;;;;;11.63;5.97;;;;;;;0.27;93.51;101389.44;5016992;28;20033;-85
2024/01/19 02:19:24;;;;;;;11.52;5.95;;;;;;;0.01;93.40;101360.16;5034695;28;20048;-86
2024/01/19 02:21:50;;;;;;;10.57;6.15;;;;;;;-0.02;93.77;101381.63;5017393;28;20032;-86
2024/01/19 02:24:25;;;;;;;11.40;6.15;;;;;;;-0.10;93.92;101368.97;5017026;28;20037;-87
2024/01/19 02:26:50;;;;;;;12.68;5.93;;;;;;;-0.15;94.47;101352.22;5016788;28;20028;-86
2024/01/19 02:29:16;;;;;;;10.48;5.80;;;;;;;0.05;94.22;101385.53;5034539;28;20029;-86
2024/01/19 02:31:42;;;;;;;7.55;5.22;;;;;;;0.30;95.06;101426.91;5000401;28;20030;-86
2024/01/19 02:34:10;;;;;;;8.35;5.30;;;;;;;0.05;95.42;101361.25;5034687;28;20389;-86
2024/01/19 02:36:35;;;;;;;9.05;5.40;;;;;;;0.04;94.09;101354.22;5034084;28;20101;-86
2024/01/19 02:39:01;;;;;;;10.18;4.80;;;;;;;0.10;93.85;101370.22;5034434;28;20033;-85
2024/01/19 02:41:28;;;;;;;10.27;5.20;;;;;;;-0.02;94.29;101379.03;5016586;28;20440;-85
2024/01/19 02:43:54;;;;;;;11.30;5.25;;;;;;;0.18;94.75;101429.66;5033723;28;20385;-86
2024/01/19 02:46:20;;;;;;;9.90;4.57;;;;;;;-0.18;95.80;101384.09;4999361;28;20124;-85
2024/01/19 02:48:50;;;;;;;11.95;4.70;;;;;;;-0.19;95.99;101387.50;5033910;28;20036;-86
2024/01/19 02:51:16;;;;;;;9.52;4.60;;;;;;;-0.13;95.97;101400.88;5034044;28;20030;-86
2024/01/19 02:53:41;;;;;;;9.48;4.57;;;;;;;0.21;96.55;101448.03;5033828;28;20053;-86
2024/01/19 02:56:09;;;;;;;13.23;4.38;;;;;;;-0.08;95.84;101391.66;5031226;28;20454;-86
2024/01/19 02:58:38;;;;;;;10.48;4.30;;;;;;;0.16;96.69;101449.41;5033743;28;20038;-86
2024/01/19 03:01:07;;;;;;;9.95;4.70;;;;;;;-0.26;97.45;101374.91;5034222;28;20521;-85
2024/01/19 03:03:34;;;;;;;7.82;4.25;;;;;;;0.11;98.10;101448.25;5000888;28;20036;-85
2024/01/19 03:06:09;;;;;;;10.98;4.70;;;;;;;-0.02;97.80;101420.59;5015791;28;20551;-85
2024/01/19 03:08:35;;;;;;;8.45;4.07;;;;;;;0.08;97.78;101424.66;5033164;28;20041;-85
2024/01/19 03:11:00;;;;;;;11.65;3.97;;;;;;;-0.19;98.14;101371.00;5033299;28;20033;-86
2024/01/19 03:13:26;;;;;;;7.10;4.07;;;;;;;0.27;97.65;101449.22;5033980;28;20463;-86
2024/01/19 03:15:51;;;;;;;10.73;4.05;;;;;;;0.27;97.87;101426.72;5032273;28;20339;-86
2024/01/19 03:18:18;;;;;;;8.73;4.35;;;;;;;0.46;97.29;101466.00;5033235;28;20112;-86
2024/01/19 03:20:47;;;;;;;7.70;4.10;;;;;;;0.46;97.66;101465.13;5032288;28;20044;-86
2024/01/19 03:23:14;;;;;;;9.25;4.13;;;;;;;0.15;97.60;101410.38;5031953;28;20029;-86
2024/01/19 03:25:42;;;;;;;7.97;4.05;;;;;;;-0.01;98.71;101390.31;5033315;28;20030;-86
2024/01/19 03:28:08;;;;;;;5.28;3.63;;;;;;;0.28;98.16;101432.81;5031915;28;20056;-86
2024/01/19 03:30:33;;;;;;;5.28;3.83;;;;;;;0.27;98.76;101441.41;5032020;28;20115;-86
2024/01/19 03:32:59;;;;;;;10.63;3.97;;;;;;;0.49;98.65;101473.09;5033264;28;20398;-86
2024/01/19 03:35:26;;;;;;;8.18;4.18;;;;;;;0.21;98.35;101421.13;5031961;28;20033;-86
2024/01/19 03:37:52;;;;;;;9.70;3.90;;;;;;;0.14;98.63;101399.06;5031903;28;20155;-86
2024/01/19 03:40:17;;;;;;;7.90;3.90;;;;;;;0.57;98.68;101468.38;5031823;28;20115;-85
2024/01/19 03:42:43;;;;;;;6.65;4.35;;;;;;;0.06;99.23;101384.72;5015406;28;20075;-85
2024/01/19 03:45:08;;;;;;;8.68;4.38;;;;;;;0.49;99.42;101462.72;5032616;28;20025;-85
2024/01/19 03:47:34;;;;;;;8.63;4.72;;;;;;;0.33;99.45;101433.97;5015424;28;20060;-85
2024/01/19 03:50:05;;;;;;;8.77;4.70;;;;;;;0.05;99.03;101387.22;5033133;28;20068;-85
2024/01/19 03:52:33;;;;;;;8.48;4.60;;;;;;;0.07;99.56;101404.69;5031748;28;20044;-86
2024/01/19 03:54:59;;;;;;;6.35;4.55;;;;;;;0.40;99.49;101463.03;5031245;28;20192;-85
2024/01/19 03:57:26;;;;;;;8.68;4.68;;;;;;;0.36;100.00;101453.25;5031579;28;20108;-86
2024/01/19 03:59:54;;;;;;;9.18;4.80;;;;;;;0.23;99.64;101417.81;5031645;28;20124;-86
2024/01/19 04:02:20;;;;;;;10.05;4.82;;;;;;;0.09;98.45;101397.00;5015287;28;20037;-86
2024/01/19 04:04:52;;;;;;;10.43;5.10;;;;;;;0.31;98.64;101427.81;5031625;28;20036;-86
2024/01/19 04:07:20;;;;;;;9.40;5.18;;;;;;;0.07;99.44;101396.00;5031575;28;20040;-86
2024/01/19 04:09:51;;;;;;;10.13;5.32;;;;;;;0.08;99.44;101395.19;5015149;28;20450;-86
2024/01/19 04:12:19;;;;;;;8.95;4.95;;;;;;;0.51;98.88;101463.69;5031764;28;20033;-86
2024/01/19 04:14:49;;;;;;;10.10;5.03;;;;;;;0.38;99.29;101445.53;5032337;28;20044;-86
2024/01/19 04:17:15;;;;;;;10.73;5.35;;;;;;;0.00;98.94;101392.16;5015404;28;20470;-86
2024/01/19 04:19:40;;;;;;;8.88;5.68;;;;;;;-0.03;98.97;101399.75;5033003;28;20029;-86
2024/01/19 04:22:06;;;;;;;10.13;5.18;;;;;;;0.09;99.13;101423.00;5031873;28;20042;-86
2024/01/19 04:24:31;;;;;;;9.25;5.18;;;;;;;0.35;99.45;101464.47;5032649;28;20496;-86
2024/01/19 04:27:09;;;;;;;13.68;5.60;;;;;;;0.03;99.27;101420.88;5032567;28;20026;-85
2024/01/19 04:29:37;;;;;;;9.80;5.45;;;;;;;0.25;99.32;101475.97;5032669;28;20366;-85
2024/01/19 04:32:03;;;;;;;7.72;5.50;;;;;;;0.47;99.32;101506.81;5031475;28;20037;-85
2024/01/19 04:34:28;;;;;;;8.40;5.15;;;;;;;0.43;99.40;101507.44;5032497;28;20083;-85
2024/01/19 04:36:53;;;;;;;9.18;5.53;;;;;;;0.41;99.55;101506.44;5032748;28;20029;-86
2024/01/19 04:39:21;;;;;;;10.75;6.00;;;;;;;0.10;98.97;101463.75;5031380;28;20034;-86
2024/01/19 04:41:47;;;;;;;9.55;5.60;;;;;;;0.32;99.69;101520.56;5015394;28;20029;-83
2024/01/19 04:44:14;;;;;;;11.48;5.55;;;;;;;0.27;100.00;101521.97;5032506;28;20071;-87
2024/01/19 04:46:43;;;;;;;13.90;6.05;;;;;;;0.20;100.00;101528.47;5031479;28;20475;-86
2024/01/19 04:49:08;;;;;;;13.20;5.97;;;;;;;-0.03;100.00;101501.94;5032669;28;20029;-86
2024/01/19 04:51:36;;;;;;;12.57;6.00;;;;;;;0.09;100.00;101532.13;5031344;28;20363;-86
2024/01/19 04:54:06;;;;;;;12.98;6.68;;;;;;;-0.26;100.00;101463.19;4998596;28;20488;-86
2024/01/19 04:56:34;;;;;;;12.85;6.22;;;;;;;0.15;100.00;101551.56;5032294;28;20037;-86
2024/01/19 04:59:00;;;;;;;9.73;5.65;;;;;;;-0.16;99.41;101486.38;5014819;28;20025;-86
2024/01/19 05:01:25;;;;;;;10.30;5.88;;;;;;;0.14;99.70;101554.09;5032178;28;20026;-86
2024/01/19 05:03:51;;;;;;;11.57;5.72;;;;;;;0.16;100.00;101550.75;5014862;28;20033;-86
2024/01/19 05:06:18;;;;;;;10.70;5.82;;;;;;;0.04;100.00;101516.19;5014809;28;20475;-86
2024/01/19 05:08:48;;;;;;;12.07;6.20;;;;;;;-0.11;100.00;101494.47;5032411;28;20065;-86
2024/01/19 05:11:14;;;;;;;10.60;6.40;;;;;;;0.04;100.00;101524.00;5018098;28;20403;-86
2024/01/19 05:13:53;;;;;;;;;;;;;;;;;;;;;
2024/01/19 05:16:23;;;;;;;14.35;6.03;;;;;;;-0.41;100.00;101478.72;5035948;28;20063;-86
2024/01/19 05:18:58;;;;;;;;;;;;;;;;;;;;;
2024/01/19 05:21:24;;;;;;;11.88;6.60;;;;;;;-0.43;100.00;101500.16;5035930;28;20025;-86
2024/01/19 05:23:50;;;;;;;11.38;6.60;;;;;;;-0.32;99.91;101530.34;5017643;28;20120;-85
2024/01/19 05:26:15;;;;;;;12.75;5.90;;;;;;;-0.71;100.00;101474.13;5035396;28;20038;-86
2024/01/19 05:28:41;;;;;;;11.77;6.32;;;;;;;-0.63;100.00;101489.38;5001551;28;20052;-87
2024/01/19 05:31:09;;;;;;;12.80;6.50;;;;;;;-0.65;100.00;101496.16;5017851;28;20496;-86
2024/01/19 05:33:42;;;;;;;15.50;6.72;;;;;;;-0.61;99.76;101505.06;5017866;28;20030;-87
2024/01/19 05:36:07;;;;;;;10.23;6.10;;;;;;;-0.74;100.00;101489.47;5017922;28;20370;-86
2024/01/19 05:38:33;;;;;;;12.48;6.80;;;;;;;-0.57;100.00;101517.44;5035187;28;20051;-86
2024/01/19 05:41:01;;;;;;;10.60;6.68;;;;;;;-0.48;100.00;101549.19;5035164;28;20029;-86
2024/01/19 05:43:26;;;;;;;13.13;6.43;;;;;;;-0.10;100.00;101610.53;5035451;28;20033;-86
2024/01/19 05:45:54;;;;;;;14.55;6.93;;;;;;;-0.11;99.90;101613.94;5017492;28;20033;-86
2024/01/19 05:48:21;;;;;;;11.63;6.65;;;;;;;-0.15;99.33;101623.22;5017871;28;20486;-86
2024/01/19 05:51:08;;;;;;;11.23;6.35;;;;;;;-0.64;99.67;101536.91;5017925;28;20037;-86
2024/01/19 05:53:38;;;;;;;16.50;6.60;;;;;;;-0.69;99.27;101527.88;5034822;28;20041;-87
2024/01/19 05:56:21;;;;;;;11.65;6.90;;;;;;;-0.11;100.00;101642.53;5031688;28;20076;-87
2024/01/19 05:58:50;;;;;;;10.63;6.70;;;;;;;-0.74;99.88;101554.34;5033644;28;20075;-86
2024/01/19 06:01:25;;;;;;;;;;;;;;;;;;;;;
2024/01/19 06:03:57;;;;;;;13.70;6.20;;;;;;;-0.49;100.00;101598.41;5035053;28;20377;-86
2024/01/19 06:06:25;;;;;;;14.48;6.95;;;;;;;-0.73;100.00;101558.72;5033753;28;20034;-86
2024/01/19 06:08:59;;;;;;;11.07;6.90;;;;;;;-0.61;100.00;101576.03;5034739;28;20033;-86
2024/01/19 06:11:27;;;;;;;10.23;6.40;;;;;;;-0.24;100.00;101639.91;5033683;28;20493;-86
2024/01/19 06:13:52;;;;;;;10.20;6.80;;;;;;;-0.35;100.00;101616.69;5033515;28;20418;-86
2024/01/19 06:16:18;;;;;;;11.80;7.13;;;;;;;-0.43;100.00;101599.72;5033555;28;20031;-86
2024/01/19 06:18:57;;;;;;;12.38;7.82;;;;;;;-0.17;100.00;101637.84;5034704;28;20087;-87
2024/01/19 06:21:27;;;;;;;14.15;6.95;;;;;;;-0.09;100.00;101666.88;5033942;28;20021;-87
2024/01/19 06:23:52;;;;;;;9.93;6.68;;;;;;;-0.12;100.00;101665.00;5016722;28;20120;-87
2024/01/19 06:26:20;;;;;;;12.50;7.00;;;;;;;-0.17;100.00;101660.28;5017104;28;20465;-87
2024/01/19 06:28:46;;;;;;;12.45;6.63;;;;;;;-0.09;100.00;101674.69;5033200;28;20028;-87
2024/01/19 06:31:11;;;;;;;16.98;7.20;;;;;;;0.15;100.00;101710.09;5036647;28;20026;-86
2024/01/19 06:33:47;;;;;;;14.10;6.80;;;;;;;-0.30;100.00;101624.78;5034721;28;20029;-86
2024/01/19 06:36:12;;;;;;;13.38;7.80;;;;;;;0.01;100.00;101684.91;5034514;28;20060;-87
2024/01/19 06:38:42;;;;;;;12.88;6.80;;;;;;;-0.19;100.00;101664.47;5034977;28;20069;-87
2024/01/19 06:41:08;;;;;;;13.07;7.30;;;;;;;-0.34;100.00;101649.69;5034764;28;20048;-87
2024/01/19 06:43:36;;;;;;;13.57;7.20;;;;;;;-0.48;100.00;101624.47;5033051;28;20033;-86
2024/01/19 06:46:02;;;;;;;12.60;6.53;;;;;;;-0.44;100.00;101629.06;5033967;28;20030;-87
2024/01/19 06:48:27;;;;;;;12.55;7.15;;;;;;;-0.23;100.00;101684.16;5032860;28;20120;-87
2024/01/19 06:50:53;;;;;;;11.10;7.47;;;;;;;-0.60;100.00;101629.75;5032911;28;20034;-87
2024/01/19 06:53:21;;;;;;;15.25;7.07;;;;;;;-0.63;100.00;101626.94;5033016;28;20045;-87
2024/01/19 06:55:49;;;;;;;10.95;7.00;;;;;;;-0.70;100.00;101614.34;5034017;28;20061;-87
2024/01/19 06:58:14;;;;;;;10.77;6.47;;;;;;;-0.65;100.00;101625.03;5016241;28;20029;-87
2024/01/19 07:00:45;;;;;;;15.85;6.75;;;;;;;-0.05;100.00;101728.63;5033650;28;20117;-87
2024/01/19 07:03:10;;;;;;;13.23;6.93;;;;;;;-0.28;100.00;101698.53;4999611;28;20045;-87
2024/01/19 07:05:42;;;;;;;9.93;6.72;;;;;;;-0.59;100.00;101646.22;5016180;28;20036;-87
2024/01/19 07:08:18;;;;;;;12.15;6.35;;;;;;;-0.07;100.00;101736.34;5016083;28;20099;-87
2024/01/19 07:10:46;;;;;;;11.27;6.30;;;;;;;-0.59;100.00;101664.41;5033519;28;20083;-87
2024/01/19 07:13:11;;;;;;;9.70;6.60;;;;;;;-0.71;100.00;101667.03;5033433;28;20041;-87
2024/01/19 07:15:36;;;;;;;11.43;6.15;;;;;;;-0.57;100.00;101700.03;5015989;28;20041;-87
2024/01/19 07:18:05;;;;;;;12.43;7.15;;;;;;;-0.67;100.00;101691.50;5015978;28;20033;-87
2024/01/19 07:20:30;;;;;;;9.68;6.15;;;;;;;-0.81;100.00;101675.88;5015845;28;20026;-87
2024/01/19 07:22:56;;;;;;;10.82;6.50;;;;;;;-0.34;100.00;101747.47;5015910;28;20042;-87
2024/01/19 07:25:27;;;;;;;11.27;6.65;;;;;;;-0.39;100.00;101744.50;5033455;28;20033;-87
2024/01/19 07:27:55;;;;;;;13.68;7.22;;;;;;;-0.76;99.20;101686.59;4999512;28;20034;-88
2024/01/19 07:30:29;;;;;;;13.65;6.88;;;;;;;-0.47;99.40;101748.31;5033016;28;20045;-88
2024/01/19 07:33:16;;;;;;;13.25;6.72;;;;;;;-0.29;99.85;101790.22;5018056;28;20035;-87
2024/01/19 07:35:43;;;;;;;10.07;6.03;;;;;;;-0.82;99.63;101699.09;5016746;28;20105;-88
2024/01/19 07:38:20;;;;;;;12.00;6.63;;;;;;;-0.87;99.75;101697.91;5015060;28;20029;-87
2024/01/19 07:40:58;;;;;;;13.38;6.82;;;;;;;-0.72;100.00;101729.22;5015043;28;20071;-87
2024/01/19 07:43:29;;;;;;;10.18;7.07;;;;;;;-0.57;99.55;101764.00;5033080;28;20462;-87
2024/01/19 07:45:57;;;;;;;12.68;6.90;;;;;;;-0.54;99.88;101762.53;5014571;28;20125;-87
2024/01/19 07:48:25;;;;;;;12.27;6.75;;;;;;;-0.93;99.33;101711.34;5037805;28;20065;-87
2024/01/19 07:50:52;;;;;;;10.98;6.68;;;;;;;-0.40;100.00;101817.13;5018417;28;20045;-87
2024/01/19 07:53:31;;;;;;;11.27;6.35;;;;;;;-0.89;99.88;101718.56;5032449;28;20084;-87
2024/01/19 07:56:00;;;;;;;10.73;6.57;;;;;;;-1.03;100.00;101711.47;5027834;28;20053;-88
2024/01/19 07:58:46;;;;;;;11.40;6.32;;;;;;;-0.99;100.00;101720.38;5031309;28;20439;-88
2024/01/19 08:01:30;;;;;;;12.07;7.07;;;;;;;-0.77;100.00;101760.03;5032062;28;20049;-88
2024/01/19 08:04:06;;;;;;;17.23;7.15;;;;;;;-0.72;100.00;101776.81;5001878;28;20022;-88
2024/01/19 08:06:49;;;;;;;;;;;;;;;;;;;;;
2024/01/19 08:09:24;;;;;;;10.93;6.70;;;;;;;-0.67;100.00;101762.47;5031547;28;20393;-87
2024/01/19 08:11:55;;;;;;;12.77;6.55;;;;;;;-0.47;100.00;101782.06;5031380;28;20037;-87
2024/01/19 08:14:27;;;;;;;11.30;7.35;;;;;;;-0.62;100.00;101726.47;5032381;28;20445;-88
2024/01/19 08:16:55;;;;;;;;;;;;;;;0.17;100.00;101845.31;5015129;28;20034;-88
2024/01/19 08:19:30;;;;;;;;;;;;;;;;;;;;;
2024/01/19 08:22:01;;;;;;;12.00;6.90;;;;;;;-0.53;99.20;101759.16;5031113;28;20035;-89
2024/01/19 08:24:29;;;;;;;17.13;6.78;;;;;;;-0.56;100.00;101752.84;5031031;28;20045;-88
2024/01/19 08:26:58;;;;;;;13.98;6.95;;;;;;;-0.38;100.00;101799.97;5035048;28;20056;-88
2024/01/19 08:29:23;;;;;;;11.70;6.72;;;;;;;-0.64;100.00;101754.91;5031038;28;20032;-88
2024/01/19 08:31:57;;;;;;;15.63;6.97;;;;;;;-0.49;100.00;101767.16;5031277;28;20025;-87
2024/01/19 08:34:22;;;;;;;17.85;7.50;;;;;;;-0.34;100.00;101822.75;5031087;28;20044;-88
2024/01/19 08:36:47;;;;;;;17.95;7.63;;;;;;;-0.67;100.00;101766.78;5030684;28;20386;-87
2024/01/19 08:39:22;;;;;;;15.35;7.82;;;;;;;-0.52;100.00;101779.09;5031967;28;20489;-87
2024/01/19 08:41:50;;;;;;;13.48;7.60;;;;;;;0.02;100.00;101832.19;5030997;28;20026;-88
2024/01/19 08:44:23;;;;;;;15.35;7.47;;;;;;;-0.04;100.00;101783.31;5032500;28;20474;-88
2024/01/19 08:46:54;;;;;;;13.18;6.95;;;;;;;0.22;100.00;101781.59;5035848;28;20132;-90
2024/01/19 08:49:21;;;;;;;15.90;7.22;;;;;;;0.43;100.00;101779.53;5034669;28;20061;-85
2024/01/19 08:51:50;;;;;;;16.95;7.30;;;;;;;0.67;100.00;101788.91;5035470;28;20040;-87
2024/01/19 08:54:18;;;;;;;10.90;6.38;;;;;;;1.06;99.32;101804.41;5035654;28;20442;-87
2024/01/19 08:56:51;;;;;;;10.30;6.40;;;;;;;1.70;98.79;101884.94;5033699;28;20561;-86
2024/01/19 08:59:18;;;;;;;14.57;6.65;;;;;;;1.47;97.76;101804.44;5034723;28;20065;-87
2024/01/19 09:01:45;;;;;;;11.93;6.90;;;;;;;1.97;96.70;101859.72;5017877;28;20029;-86
2024/01/19 09:04:13;;;;;;;9.05;5.70;;;;;;;2.18;95.75;101864.41;5037431;28;20116;-88
2024/01/19 09:06:38;;;;;;;8.60;5.93;;;;;;;2.21;95.25;101842.03;5033921;28;20492;-87
2024/01/19 09:09:08;;;;;;;9.32;6.07;;;;;;;2.21;94.38;101808.13;5034044;28;20068;-88
2024/01/19 09:11:39;;;;;;;9.68;5.68;;;;;;;2.57;93.25;101838.91;5017457;28;20104;-87
2024/01/19 09:14:09;;;;;;;13.50;6.35;;;;;;;2.85;92.26;101851.88;5017803;28;20444;-83
2024/01/19 09:16:35;;;;;;;14.98;6.13;;;;;;;2.83;91.53;101832.63;5035732;28;20087;-84
2024/01/19 09:19:13;;;;;;;12.10;5.82;;;;;;;3.28;91.22;101880.44;5035178;28;20489;-91
2024/01/19 09:21:50;;;;;;;7.65;5.65;;;;;;;3.34;90.63;101865.09;5033962;28;20030;-89
2024/01/19 09:24:19;;;;;;;9.13;5.32;;;;;;;3.78;90.00;101909.41;5035271;28;20084;-91
2024/01/19 09:26:44;;;;;;;12.95;5.60;;;;;;;3.71;88.63;101894.19;5034301;28;20540;-87
2024/01/19 09:29:10;;;;;;;9.55;5.43;;;;;;;4.06;88.37;101935.34;5035144;28;20037;-91
2024/01/19 09:31:49;;;;;;;10.18;5.50;;;;;;;3.85;87.50;101882.75;5034532;28;20045;-93
2024/01/19 09:34:15;;;;;;;9.55;5.57;;;;;;;3.81;87.65;101857.28;5033589;28;20389;-90
2024/01/19 09:36:41;;;;;;;8.88;5.47;;;;;;;4.35;87.06;101936.00;5033457;28;20034;-86
2024/01/19 09:39:07;;;;;;;8.45;4.90;;;;;;;4.27;86.14;101918.19;5035048;28;20037;-86
2024/01/19 09:41:45;;;;;;;11.55;5.75;;;;;;;4.04;87.10;101878.56;5033159;28;20364;-86
2024/01/19 09:44:12;;;;;;;8.35;5.18;;;;;;;4.12;86.44;101892.94;5036037;28;20394;-86
2024/01/19 09:47:17;;;;;;;7.85;5.00;;;;;;;4.32;87.02;101900.09;5047344;28;20126;-84
2024/01/19 09:49:57;;;;;;;10.02;5.55;;;;;;;4.53;86.24;101932.66;5044071;28;20037;-89
2024/01/19 09:52:44;;;;;;;11.35;5.40;;;;;;;4.81;85.40;101955.03;5040404;28;20065;-88
2024/01/19 09:55:11;;;;;;;10.00;5.60;;;;;;;4.83;84.82;101968.19;5012924;28;20053;-86
2024/01/19 09:57:46;;;;;;;8.35;5.18;;;;;;;4.84;85.36;101949.03;5013743;28;20033;-86
2024/01/19 10:00:13;;;;;;;9.95;5.43;;;;;;;4.89;84.57;101938.00;4997176;28;20034;-87
2024/01/19 10:02:49;;;;;;;10.73;5.70;;;;;;;5.12;84.52;101972.31;5014899;28;20030;-87
2024/01/19 10:05:16;;;;;;;12.07;5.38;;;;;;;5.25;83.90;101985.22;5014117;28;20038;-85
2024/01/19 10:07:43;;;;;;;8.13;5.22;;;;;;;5.25;83.94;101962.53;5013434;28;20041;-90
2024/01/19 10:10:09;;;;;;;9.98;5.22;;;;;;;5.48;83.50;101968.00;5013290;28;20049;-86
2024/01/19 10:12:37;;;;;;;9.30;5.15;;;;;;;5.59;83.41;101990.44;5014594;28;20030;-87
2024/01/19 10:15:04;;;;;;;9.80;5.25;;;;;;;5.71;82.88;101992.75;5013179;28;20068;-86
2024/01/19 10:17:31;;;;;;;13.00;5.20;;;;;;;5.83;81.69;101987.22;5013021;28;20050;-86
2024/01/19 10:19:58;;;;;;;9.65;5.53;;;;;;;5.92;81.15;101996.44;5013682;28;20037;-84
2024/01/19 10:22:26;;;;;;;10.20;5.40;;;;;;;5.92;80.67;101972.84;5014249;28;20041;-89
2024/01/19 10:25:09;;;;;;;10.63;5.40;;;;;;;6.01;80.88;101975.91;5013256;28;20447;-88
2024/01/19 10:27:44;;;;;;;10.10;5.68;;;;;;;6.13;80.67;101986.09;5015858;28;20030;-89
2024/01/19 10:30:23;;;;;;;10.32;5.80;;;;;;;6.28;80.90;102004.25;5013223;28;20041;-85
2024/01/19 10:32:50;;;;;;;9.77;5.50;;;;;;;6.22;79.17;101954.13;5014292;28;20033;-86
2024/01/19 10:35:21;;;;;;;12.57;5.85;;;;;;;6.60;79.29;101986.47;5014833;28;20132;-87
2024/01/19 10:37:47;;;;;;;8.00;5.22;;;;;;;6.67;77.22;101993.78;5012914;28;20048;-88
2024/01/19 10:40:16;;;;;;;14.73;5.22;;;;;;;6.78;79.05;102005.69;5013100;28;20121;-94
2024/01/19 10:42:43;;;;;;;10.25;5.35;;;;;;;6.85;78.96;101988.44;5014197;28;20383;-90
2024/01/19 10:45:21;;;;;;;21.00;6.05;;;;;;;6.91;77.54;101968.59;4996565;28;20057;-86
2024/01/19 10:47:52;;;;;;;13.15;5.28;;;;;;;7.21;76.25;102000.56;5015625;28;20034;-87
2024/01/19 10:50:19;;;;;;;11.40;5.22;;;;;;;7.05;75.84;101942.03;5042429;28;20112;-87
2024/01/19 10:52:51;;;;;;;11.68;4.82;;;;;;;7.30;76.26;101970.25;5052115;28;20461;-88
2024/01/19 10:55:27;;;;;;;12.68;5.40;;;;;;;7.37;75.40;101946.91;5051998;28;20057;-87
2024/01/19 10:58:09;;;;;;;9.70;4.90;;;;;;;7.74;74.83;102001.91;5053556;28;20437;-89
2024/01/19 11:00:44;;;;;;;9.90;5.38;;;;;;;7.35;74.78;101924.00;5053574;28;20029;-88
2024/01/19 11:03:09;;;;;;;9.88;5.47;;;;;;;7.74;73.43;101953.66;5053621;28;20108;-88
2024/01/19 11:05:38;;;;;;;10.98;5.15;;;;;;;7.77;73.33;101931.00;5052269;28;20422;-87
2024/01/19 11:08:06;;;;;;;12.75;5.38;;;;;;;7.98;72.67;101935.31;5051414;28;20519;-88
2024/01/19 11:10:32;;;;;;;9.93;5.78;;;;;;;8.12;71.27;101927.94;5052220;28;20037;-87
2024/01/19 11:12:59;;;;;;;9.43;5.20;;;;;;;8.47;70.68;101985.47;5053223;28;20136;-90
2024/01/19 11:15:53;;;;;;;13.00;5.03;;;;;;;8.53;71.24;102001.53;5035413;28;20120;-86
2024/01/19 11:18:20;;;;;;;13.88;5.38;;;;;;;8.31;70.57;101969.00;5053594;28;20469;-86
2024/01/19 11:20:51;;;;;;;11.15;5.43;;;;;;;8.39;71.15;101984.28;5055569;28;20108;-90
2024/01/19 11:23:17;;;;;;;11.18;5.80;;;;;;;8.41;70.37;101961.56;5037871;28;20040;-87
2024/01/19 11:26:07;;;;;;;10.18;5.65;;;;;;;8.59;69.13;101998.22;5043088;28;20036;-93
2024/01/19 11:28:51;;;;;;;12.63;5.78;;;;;;;8.53;68.96;101992.75;5061044;28;20112;-91
2024/01/19 11:31:19;;;;;;;9.15;6.00;;;;;;;8.52;69.37;101983.03;5054046;28;20029;-92
2024/01/19 11:33:45;;;;;;;13.90;6.10;;;;;;;8.51;70.06;101968.94;5055695;28;20470;-93
2024/01/19 11:36:31;;;;;;;11.93;6.20;;;;;;;8.53;67.63;101995.38;5055767;28;20029;-92